createdAt,value
2019-05-30T00:08:32.680Z,36.30
2019-05-30T00:21:39.953Z,36.50
2019-05-30T00:34:47.138Z,36.90
2019-05-30T01:00:59.034Z,37.20
2019-05-30T01:27:10.609Z,37.00
2019-05-30T01:40:17.946Z,37.10
2019-05-30T01:53:25.192Z,37.10
2019-05-30T02:06:32.519Z,37.20
2019-05-30T02:19:39.773Z,37.20
2019-05-30T02:32:47.068Z,37.20
2019-05-30T02:46:12.225Z,37.30
2019-05-30T02:59:33.246Z,37.20
2019-05-30T03:12:56.047Z,37.20
2019-05-30T03:26:18.868Z,37.20
2019-05-30T03:39:41.814Z,37.20
2019-05-30T03:53:05.323Z,37.20
2019-05-30T04:06:27.343Z,37.30
2019-05-30T04:19:50.210Z,37.40
2019-05-30T04:33:20.353Z,37.40
2019-05-30T04:46:35.787Z,37.60
2019-05-30T04:59:58.539Z,37.50
2019-05-30T05:13:22.544Z,37.70
2019-05-30T05:26:44.180Z,37.90
2019-05-30T05:53:08.647Z,38.30
2019-05-30T06:19:27.472Z,39.10
2019-05-30T06:32:49.149Z,39.90
2019-05-30T06:46:11.970Z,40.70
2019-05-30T07:12:36.437Z,42.70
2019-05-30T07:51:55.774Z,46.30
2019-05-30T08:05:02.945Z,47.20
2019-05-30T08:18:10.302Z,46.10
2019-05-30T08:31:17.481Z,44.70
2019-05-30T08:44:24.791Z,45.10
2019-05-30T08:57:32.402Z,47.50
2019-05-30T09:10:55.631Z,49.60
2019-05-30T09:24:18.458Z,48.90
2019-05-30T09:37:41.813Z,47.90
2019-05-30T09:51:04.120Z,51.60
2019-05-30T10:04:26.845Z,53.30
2019-05-30T10:17:52.422Z,52.50
2019-05-30T10:31:12.398Z,53.60
2019-05-30T10:58:10.458Z,52.00
2019-05-30T11:11:18.794Z,50.60
2019-05-30T11:26:38.476Z,56.30
2019-05-30T11:40:01.131Z,56.30
2019-05-30T11:53:23.892Z,57.40
2019-05-30T12:20:21.401Z,55.50
2019-05-30T12:33:28.586Z,54.30
2019-05-30T12:46:35.867Z,54.00
2019-05-30T12:59:43.148Z,54.60
2019-05-30T13:12:50.315Z,54.70
2019-05-30T13:26:14.458Z,55.90
2019-05-30T13:39:37.370Z,57.40
2019-05-30T13:53:00.897Z,57.80
2019-05-30T14:19:25.187Z,57.50
2019-05-30T14:32:32.046Z,57.70
2019-05-30T14:45:39.318Z,58.10
2019-05-30T14:58:46.513Z,57.60
2019-05-30T15:11:53.665Z,57.70
2019-05-30T15:25:00.874Z,57.10
2019-05-30T15:38:24.339Z,57.20
2019-05-30T15:51:47.133Z,57.00
2019-05-30T16:05:10.494Z,57.60
2019-05-30T16:18:32.854Z,57.30
2019-05-30T16:31:55.587Z,57.60
2019-05-30T16:45:21.608Z,57.70
2019-05-30T16:58:41.202Z,57.60
2019-05-30T17:12:04.003Z,59.40
2019-05-30T17:25:27.202Z,59.80
2019-05-30T17:51:51.863Z,58.80
2019-05-30T18:18:58.202Z,57.30
2019-05-30T18:45:56.124Z,56.70
2019-05-30T18:59:03.469Z,57.10
2019-05-30T19:26:08.996Z,56.40
2019-05-30T19:39:31.514Z,56.10
2019-05-30T19:52:54.200Z,56.00
2019-05-30T20:06:17.058Z,55.80
2019-05-30T20:19:40.012Z,55.90
2019-05-30T20:33:02.645Z,55.60
